Aviation Digital Data Service (ADDS)

Output produced by TAFs form (1919 UTC 23 July 2017)
found at http://www.aviationweather.gov/adds/tafs/
 
METAR text: LSGG 231850Z 24005KT 9999 FEW040 SCT140 22/11 Q1016 NOSIG
Conditions at: LSGG (GENEVA/COINTRIN , CH) observed 1850 UTC 23 July 2017
Temperature: 22.0°C (72°F)
Dewpoint: 11.0°C (52°F) [RH = 50%]
Pressure (altimeter): 30.00 inches Hg (1016.0 mb)
Winds: from the WSW (240 degrees) at 6 MPH (5 knots; 2.6 m/s)
Visibility: 6 or more miles (10+ km)
Ceiling: at least 12,000 feet AGL
Clouds: few clouds at 4000 feet AGL
scattered clouds at 14000 feet AGL
Weather: no significant weather observed at this time

Forecast for: LSGG (GENEVA/COINTRIN , CH)
Text: TAF LSGG 231725Z 2318/2424 27009KT 9999 FEW040 TX21/2415Z TN15/2404Z
Forecast period: 1800 UTC 23 July 2017 to 0000 UTC 25 July 2017
Forecast type: FROM: standard forecast or significant change
Winds: from the W (270 degrees) at 10 MPH (9 knots; 4.7 m/s)
Visibility: 6 or more miles (10+ km)
Clouds: few clouds at 4000 feet AGL
Weather: no significant weather forecast for this period
Text: TEMPO 2405/2410 SHRA FEW010 BKN040
Forecast period: 0500 to 1000 UTC 24 July 2017
Forecast type: TEMPORARY: The following changes expected for less than half the time period
Ceiling: 4000 feet AGL
Clouds: few clouds at 1000 feet AGL
broken clouds at 4000 feet AGL
Weather: SHRA  (rain showers)